Terminal Aerodrome Forecast
Issued by NWS

Home | Current Version | Previous Version | Text Only | Print | Product List | Glossary On
Versions: 1 2 3 4 5 6 7 8 9 10 11 12 13 14 15 16 17 18
000
FTUS41 KCAR 292327
TAFPQI
TAF
KPQI 292327Z 3000/3024 VRB03KT P6SM SCT250
     FM300930 15008KT 6SM -SN SCT009 BKN015 OVC080
     FM301500 14006KT 1 1/2SM -SN OVC025
     FM301800 14007KT 1/2SM SN FG OVC001
      AMD LTD TO CLD VIS AND WIND=

USA.gov is the U.S. government's official web portal to all federal, state and local government web resources and services.